Time;durP1;ratioP1;P1;durP2;ratioP2;P2;SDS_P1;SDS_P2;PMS_P1;PMS_P2;Temp;Humidity;BMP_temperature;BMP_pressure;BME280_temperature;BME280_humidity;BME280_pressure;Samples;Min_cycle;Max_cycle;Signal;HPM_P1;HPM_P2
2023/12/04 00:01:45;;;;;;;14.52;8.07;;;;;;;-6.80;100.00;97363.78;5026719;28;20606;-62
2023/12/04 00:04:12;;;;;;;16.77;8.23;;;;;;;-6.76;100.00;97362.53;5040643;28;20103;-63
2023/12/04 00:06:41;;;;;;;15.85;8.23;;;;;;;-6.66;100.00;97352.81;5041846;28;20446;-62
2023/12/04 00:09:07;;;;;;;16.98;8.68;;;;;;;-6.93;100.00;97351.75;5039888;28;20052;-63
2023/12/04 00:11:34;;;;;;;19.23;9.55;;;;;;;-7.05;100.00;97350.25;5034715;28;20033;-62
2023/12/04 00:14:00;;;;;;;16.95;7.97;;;;;;;-7.38;100.00;97340.03;5040347;28;20747;-62
2023/12/04 00:16:27;;;;;;;17.02;8.77;;;;;;;-7.63;100.00;97333.53;5030416;28;20168;-62
2023/12/04 00:18:53;;;;;;;17.05;8.77;;;;;;;-7.76;100.00;97329.38;5042016;28;20076;-62
2023/12/04 00:21:20;;;;;;;16.13;7.63;;;;;;;-7.79;100.00;97324.38;5043861;28;20041;-62
2023/12/04 00:23:47;;;;;;;15.05;7.50;;;;;;;-7.76;100.00;97321.47;5038655;28;20046;-62
2023/12/04 00:26:14;;;;;;;17.17;8.90;;;;;;;-7.85;100.00;97324.94;5045758;28;20047;-63
2023/12/04 00:28:40;;;;;;;15.10;6.75;;;;;;;-7.80;100.00;97325.34;5037472;28;20119;-62
2023/12/04 00:31:08;;;;;;;18.00;9.02;;;;;;;-7.51;100.00;97324.53;5034404;28;20174;-62
2023/12/04 00:33:35;;;;;;;16.88;8.20;;;;;;;-7.62;100.00;97322.88;5042929;28;20044;-62
2023/12/04 00:36:02;;;;;;;14.95;7.07;;;;;;;-7.75;100.00;97331.03;5047939;28;20049;-62
2023/12/04 00:38:28;;;;;;;13.80;7.60;;;;;;;-7.70;100.00;97326.16;5028753;28;20047;-64
2023/12/04 00:40:55;;;;;;;15.50;7.38;;;;;;;-7.94;100.00;97315.22;5036099;28;20463;-63
2023/12/04 00:43:22;;;;;;;13.38;7.18;;;;;;;-8.04;100.00;97310.78;5036670;28;20038;-62
2023/12/04 00:45:48;;;;;;;13.27;7.53;;;;;;;-8.08;100.00;97304.13;5040981;28;20119;-62
2023/12/04 00:48:15;;;;;;;16.23;8.60;;;;;;;-7.99;100.00;97307.75;5044673;28;20036;-62
2023/12/04 00:50:42;;;;;;;14.90;7.90;;;;;;;-8.31;100.00;97304.34;5046870;28;20045;-62
2023/12/04 00:53:08;;;;;;;12.35;6.45;;;;;;;-8.28;100.00;97304.09;5038543;28;20581;-62
2023/12/04 00:55:35;;;;;;;13.85;7.35;;;;;;;-8.31;100.00;97301.72;5044159;28;20044;-62
2023/12/04 00:58:01;;;;;;;15.07;6.75;;;;;;;-8.49;100.00;97297.13;5038262;28;20121;-63
2023/12/04 01:00:28;;;;;;;13.27;7.03;;;;;;;-8.55;100.00;97302.91;5036212;28;20800;-63
2023/12/04 01:02:55;;;;;;;15.05;7.72;;;;;;;-8.62;100.00;97301.81;5029622;28;20045;-62
2023/12/04 01:05:21;;;;;;;17.38;7.72;;;;;;;-8.62;100.00;97307.88;5039173;28;20043;-62
2023/12/04 01:07:48;;;;;;;19.60;9.57;;;;;;;-8.45;100.00;97302.13;5040029;28;20053;-62
2023/12/04 01:10:15;;;;;;;15.55;7.63;;;;;;;-8.64;100.00;97306.34;5032158;28;20103;-62
2023/12/04 01:12:41;;;;;;;14.80;7.20;;;;;;;-8.33;100.00;97306.31;5045321;28;20044;-62
2023/12/04 01:15:09;;;;;;;15.35;8.27;;;;;;;-8.45;100.00;97296.88;5033077;28;20040;-62
2023/12/04 01:17:35;;;;;;;15.15;8.07;;;;;;;-7.97;100.00;97293.50;5033006;28;20489;-63
2023/12/04 01:20:03;;;;;;;15.07;8.40;;;;;;;-8.00;100.00;97285.88;5042358;28;20048;-62
2023/12/04 01:22:29;;;;;;;14.35;7.65;;;;;;;-8.19;100.00;97283.25;5041462;28;20606;-62
2023/12/04 01:24:56;;;;;;;15.38;8.73;;;;;;;-8.45;100.00;97279.28;5046154;28;20471;-62
2023/12/04 01:27:22;;;;;;;10.77;6.60;;;;;;;-8.52;100.00;97283.44;5032613;28;20079;-62
2023/12/04 01:29:49;;;;;;;14.25;7.80;;;;;;;-8.25;100.00;97277.53;5027143;28;20059;-62
2023/12/04 01:32:15;;;;;;;17.85;8.10;;;;;;;-8.49;100.00;97278.75;5026068;28;20515;-62
2023/12/04 01:34:42;;;;;;;19.05;8.45;;;;;;;-8.46;100.00;97277.63;5045680;28;20047;-63
2023/12/04 01:37:09;;;;;;;12.27;6.60;;;;;;;-8.56;100.00;97266.31;5038333;28;20052;-62
2023/12/04 01:39:35;;;;;;;17.70;8.18;;;;;;;-8.55;100.00;97274.03;5035896;28;20599;-61
2023/12/04 01:42:02;;;;;;;14.30;7.50;;;;;;;-8.53;100.00;97268.66;5037394;28;20614;-62
2023/12/04 01:44:29;;;;;;;13.07;7.65;;;;;;;-8.74;100.00;97261.66;5040686;28;20427;-62
2023/12/04 01:46:56;;;;;;;15.65;7.88;;;;;;;-8.56;100.00;97267.13;5040648;28;20056;-62
2023/12/04 01:49:24;;;;;;;12.60;7.70;;;;;;;-8.55;100.00;97267.97;5042027;28;20037;-62
2023/12/04 01:51:51;;;;;;;22.38;10.90;;;;;;;-8.34;100.00;97256.53;5042860;28;20036;-62
2023/12/04 01:54:17;;;;;;;15.73;9.55;;;;;;;-8.60;100.00;97255.22;5032368;28;20076;-62
2023/12/04 01:56:44;;;;;;;15.98;8.65;;;;;;;-8.58;100.00;97255.09;5038354;28;20037;-62
2023/12/04 01:59:11;;;;;;;13.50;7.10;;;;;;;-8.46;100.00;97256.63;5037948;28;20168;-62
2023/12/04 02:01:40;;;;;;;17.20;8.20;;;;;;;-8.28;100.00;97254.19;5040482;28;20657;-62
2023/12/04 02:04:07;;;;;;;16.25;8.32;;;;;;;-8.03;100.00;97257.28;5031341;28;20040;-62
2023/12/04 02:06:34;;;;;;;15.50;7.43;;;;;;;-8.10;100.00;97250.88;5046422;28;20049;-62
2023/12/04 02:09:01;;;;;;;15.88;8.13;;;;;;;-8.28;100.00;97248.09;5041364;28;20472;-63
2023/12/04 02:11:28;;;;;;;17.85;8.52;;;;;;;-7.94;100.00;97242.47;5032675;28;20095;-62
2023/12/04 02:13:55;;;;;;;14.35;7.32;;;;;;;-8.12;100.00;97242.28;5044036;28;20038;-62
2023/12/04 02:16:26;;;;;;;15.43;7.75;;;;;;;-8.41;100.00;97248.34;5039707;28;20037;-62
2023/12/04 02:18:53;;;;;;;17.13;9.57;;;;;;;-8.49;100.00;97249.84;5033186;28;20045;-62
2023/12/04 02:21:19;;;;;;;15.40;8.10;;;;;;;-8.59;100.00;97249.00;5047094;28;20124;-62
2023/12/04 02:23:52;;;;;;;17.20;8.30;;;;;;;-8.58;100.00;97244.59;5041091;28;20685;-62
2023/12/04 02:26:27;;;;;;;19.27;8.30;;;;;;;-8.77;100.00;97236.53;5035568;28;20044;-62
2023/12/04 02:29:04;;;;;;;17.58;8.05;;;;;;;-8.58;100.00;97240.19;5045631;28;20572;-62
2023/12/04 02:31:34;;;;;;;17.48;8.82;;;;;;;-8.52;100.00;97236.16;5031804;28;20090;-62
2023/12/04 02:34:05;;;;;;;13.30;7.07;;;;;;;-8.50;100.00;97229.81;5025724;28;20041;-62
2023/12/04 02:36:34;;;;;;;15.43;8.20;;;;;;;-8.16;100.00;97227.78;5034720;28;20037;-62
2023/12/04 02:39:00;;;;;;;14.95;8.07;;;;;;;-8.39;100.00;97225.41;5035040;28;20123;-62
2023/12/04 02:41:27;;;;;;;16.10;7.43;;;;;;;-8.37;100.00;97223.50;5036381;28;20394;-62
2023/12/04 02:43:54;;;;;;;17.13;9.25;;;;;;;-8.14;100.00;97226.66;5038050;28;20138;-62
2023/12/04 02:46:21;;;;;;;16.70;7.50;;;;;;;-8.26;100.00;97212.84;5039238;28;20041;-62
2023/12/04 02:48:47;;;;;;;16.33;8.02;;;;;;;-8.38;100.00;97214.75;5033132;28;20096;-62
2023/12/04 02:51:14;;;;;;;15.10;8.45;;;;;;;-8.04;100.00;97213.53;5036834;28;20053;-62
2023/12/04 02:53:40;;;;;;;14.98;7.50;;;;;;;-8.23;100.00;97202.06;5045038;28;20086;-62
2023/12/04 02:56:07;;;;;;;19.13;8.65;;;;;;;-8.48;100.00;97199.00;5029684;28;20059;-62
2023/12/04 02:58:34;;;;;;;14.48;6.80;;;;;;;-8.44;100.00;97196.09;5032430;28;20037;-62
2023/12/04 03:01:01;;;;;;;12.18;6.30;;;;;;;-8.45;100.00;97187.38;5031573;28;20106;-62
2023/12/04 03:03:27;;;;;;;15.82;7.78;;;;;;;-8.62;100.00;97178.41;5039408;28;20025;-62
2023/12/04 03:05:54;;;;;;;13.82;6.93;;;;;;;-8.66;100.00;97171.78;5047805;28;20041;-62
2023/12/04 03:08:20;;;;;;;12.80;7.50;;;;;;;-8.55;100.00;97179.50;5046944;28;20421;-62
2023/12/04 03:10:47;;;;;;;14.55;7.45;;;;;;;-8.71;100.00;97172.16;5030895;28;20119;-63
2023/12/04 03:13:13;;;;;;;14.63;7.63;;;;;;;-8.80;100.00;97167.72;5028494;28;20033;-63
2023/12/04 03:15:40;;;;;;;14.70;7.05;;;;;;;-8.89;100.00;97158.84;5040765;28;20510;-62
2023/12/04 03:18:07;;;;;;;12.95;7.55;;;;;;;-8.75;100.00;97155.88;5040976;28;20033;-62
2023/12/04 03:20:36;;;;;;;16.10;8.38;;;;;;;-8.67;100.00;97157.81;5036452;28;20093;-62
2023/12/04 03:23:02;;;;;;;13.25;7.00;;;;;;;-8.82;100.00;97157.34;5030317;28;20120;-62
2023/12/04 03:25:29;;;;;;;14.40;8.63;;;;;;;-8.75;100.00;97144.53;5031270;28;20042;-62
2023/12/04 03:27:56;;;;;;;16.23;8.00;;;;;;;-8.54;100.00;97139.19;5029675;28;20120;-63
2023/12/04 03:30:23;;;;;;;14.18;7.38;;;;;;;-8.67;100.00;97134.19;5037908;28;20558;-62
2023/12/04 03:32:49;;;;;;;15.07;8.15;;;;;;;-8.75;100.00;97127.00;5041532;28;20041;-62
2023/12/04 03:35:16;;;;;;;14.77;6.57;;;;;;;-8.66;100.00;97129.75;5035394;28;20045;-62
2023/12/04 03:37:42;;;;;;;12.93;6.97;;;;;;;-8.72;100.00;97125.03;5044403;28;20119;-62
2023/12/04 03:40:09;;;;;;;15.30;7.10;;;;;;;-8.70;100.00;97120.50;5041475;28;20037;-62
2023/12/04 03:42:36;;;;;;;14.77;6.05;;;;;;;-8.66;100.00;97120.06;5041764;28;20099;-63
2023/12/04 03:45:03;;;;;;;14.80;7.80;;;;;;;-8.68;100.00;97118.56;5043490;28;20052;-63
2023/12/04 03:47:30;;;;;;;15.02;7.25;;;;;;;-8.66;100.00;97116.66;5042183;28;20037;-63
2023/12/04 03:49:57;;;;;;;18.50;8.50;;;;;;;-8.55;100.00;97121.75;5038477;28;20094;-62
2023/12/04 03:52:23;;;;;;;12.50;7.00;;;;;;;-8.29;100.00;97118.53;5032017;28;20038;-62
2023/12/04 03:54:50;;;;;;;16.67;8.13;;;;;;;-8.17;100.00;97111.38;5036405;28;20427;-62
2023/12/04 03:57:17;;;;;;;14.85;7.40;;;;;;;-8.14;100.00;97108.44;5040036;28;20389;-62
2023/12/04 03:59:44;;;;;;;17.60;9.20;;;;;;;-8.10;100.00;97111.63;5032359;28;20048;-62
2023/12/04 04:02:11;;;;;;;16.52;8.52;;;;;;;-8.32;100.00;97110.97;5041564;28;20051;-62
2023/12/04 04:04:38;;;;;;;12.50;6.82;;;;;;;-8.20;100.00;97109.00;5049054;28;20052;-62
2023/12/04 04:07:05;;;;;;;15.27;8.27;;;;;;;-8.06;100.00;97099.03;5043714;28;20029;-63
2023/12/04 04:09:32;;;;;;;14.30;7.13;;;;;;;-7.63;100.00;97094.25;5042393;28;20033;-62
2023/12/04 04:11:58;;;;;;;15.10;7.38;;;;;;;-7.59;100.00;97095.59;5044179;28;20045;-63
2023/12/04 04:14:25;;;;;;;11.90;6.53;;;;;;;-7.72;100.00;97093.28;5039409;28;20116;-63
2023/12/04 04:16:51;;;;;;;13.75;8.48;;;;;;;-7.56;100.00;97092.66;5035427;28;20041;-63
2023/12/04 04:19:18;;;;;;;12.93;7.28;;;;;;;-7.53;100.00;97096.84;5049275;28;20049;-62
2023/12/04 04:21:44;;;;;;;12.77;7.00;;;;;;;-7.43;100.00;97092.38;5041324;28;20064;-63
2023/12/04 04:24:11;;;;;;;12.77;7.30;;;;;;;-7.31;100.00;97093.84;5040841;28;20040;-62
2023/12/04 04:26:37;;;;;;;15.60;7.00;;;;;;;-7.13;100.00;97093.06;5040439;28;20032;-62
2023/12/04 04:29:04;;;;;;;17.55;7.65;;;;;;;-6.95;100.00;97097.53;5040265;28;20045;-62
2023/12/04 04:31:31;;;;;;;15.63;7.25;;;;;;;-6.86;100.00;97096.63;5043756;28;20099;-63
2023/12/04 04:33:57;;;;;;;11.85;7.13;;;;;;;-6.79;100.00;97088.97;5036783;28;20082;-63
2023/12/04 04:36:24;;;;;;;13.60;6.93;;;;;;;-7.00;100.00;97090.09;5037207;28;20069;-62
2023/12/04 04:38:50;;;;;;;14.73;8.25;;;;;;;-6.64;100.00;97083.22;5038804;28;20056;-62
2023/12/04 04:41:17;;;;;;;15.00;7.35;;;;;;;-6.79;100.00;97078.44;5044601;28;20044;-63
2023/12/04 04:43:44;;;;;;;12.57;6.80;;;;;;;-6.57;100.00;97076.34;5035700;28;20052;-63
2023/12/04 04:46:10;;;;;;;11.00;6.32;;;;;;;-6.58;100.00;97077.31;5040808;28;20104;-62
2023/12/04 04:48:37;;;;;;;16.40;7.43;;;;;;;-6.45;100.00;97064.59;5037609;28;20448;-63
2023/12/04 04:51:04;;;;;;;13.70;7.13;;;;;;;-6.49;100.00;97063.25;5039538;28;20048;-63
2023/12/04 04:53:31;;;;;;;17.17;8.07;;;;;;;-6.58;100.00;97056.25;5048497;28;20260;-63
2023/12/04 04:55:57;;;;;;;12.52;7.38;;;;;;;-6.49;100.00;97062.44;5048727;28;20531;-63
2023/12/04 04:58:24;;;;;;;14.80;9.10;;;;;;;-6.36;100.00;97062.03;5038355;28;20045;-60
2023/12/04 05:00:51;;;;;;;12.77;6.95;;;;;;;-6.29;100.00;97060.44;5031553;28;20732;-62
2023/12/04 05:03:17;;;;;;;12.27;6.75;;;;;;;-6.22;100.00;97056.22;5043307;28;20507;-63
2023/12/04 05:05:44;;;;;;;11.45;6.10;;;;;;;-6.11;100.00;97056.97;5046641;28;20468;-63
2023/12/04 05:08:10;;;;;;;11.48;6.70;;;;;;;-6.05;100.00;97043.97;5049031;28;20037;-63
2023/12/04 05:10:38;;;;;;;14.55;7.55;;;;;;;-5.96;100.00;97041.38;5050760;28;20048;-63
2023/12/04 05:13:05;;;;;;;16.45;8.07;;;;;;;-5.94;100.00;97034.16;5036111;28;20576;-63
2023/12/04 05:15:31;;;;;;;16.10;8.38;;;;;;;-5.95;100.00;97028.03;5034905;28;20038;-63
2023/12/04 05:17:58;;;;;;;16.23;9.40;;;;;;;-6.04;100.00;97019.28;5040029;28;20443;-63
2023/12/04 05:20:24;;;;;;;13.77;7.78;;;;;;;-6.01;100.00;97012.84;5041144;28;20068;-63
2023/12/04 05:22:52;;;;;;;16.58;7.68;;;;;;;-5.97;100.00;97018.63;5041856;28;20041;-63
2023/12/04 05:25:19;;;;;;;13.75;8.43;;;;;;;-5.93;100.00;97020.78;5045634;28;20043;-63
2023/12/04 05:27:45;;;;;;;16.70;8.70;;;;;;;-5.92;100.00;97017.19;5039073;28;20071;-63
2023/12/04 05:30:15;;;;;;;20.15;9.80;;;;;;;-5.90;100.00;97015.22;5033985;28;20090;-63
2023/12/04 05:32:42;;;;;;;21.25;10.27;;;;;;;-5.84;100.00;97010.28;5038462;28;20040;-63
2023/12/04 05:35:08;;;;;;;17.70;9.82;;;;;;;-5.81;100.00;97016.09;5050256;28;20041;-63
2023/12/04 05:37:35;;;;;;;13.73;6.93;;;;;;;-5.77;100.00;97013.97;5043322;28;20119;-63
2023/12/04 05:40:03;;;;;;;16.25;7.88;;;;;;;-5.79;100.00;97021.22;5045101;28;20044;-63
2023/12/04 05:42:30;;;;;;;17.77;8.98;;;;;;;-5.87;100.00;97024.63;5036415;28;20044;-63
2023/12/04 05:44:57;;;;;;;18.58;9.15;;;;;;;-5.85;100.00;97022.66;5042442;28;20091;-63
2023/12/04 05:47:24;;;;;;;14.43;7.97;;;;;;;-5.78;100.00;97023.66;5047543;28;20158;-63
2023/12/04 05:49:50;;;;;;;13.38;7.80;;;;;;;-5.82;100.00;97021.53;5038491;28;20432;-63
2023/12/04 05:52:17;;;;;;;20.55;9.77;;;;;;;-5.79;100.00;97024.66;5035457;28;20032;-63
2023/12/04 05:54:43;;;;;;;15.32;7.97;;;;;;;-5.79;100.00;97010.66;5043932;28;20111;-63
2023/12/04 05:57:10;;;;;;;17.38;8.70;;;;;;;-5.78;100.00;97013.13;5045709;28;20502;-63
2023/12/04 05:59:37;;;;;;;17.88;8.70;;;;;;;-5.85;100.00;97012.13;5051408;28;20126;-63
2023/12/04 06:02:03;;;;;;;18.33;9.07;;;;;;;-5.88;100.00;97021.16;5038474;28;20061;-62
2023/12/04 06:04:30;;;;;;;20.15;10.45;;;;;;;-5.94;100.00;97019.13;5050632;28;20576;-63
2023/12/04 06:06:56;;;;;;;22.77;13.90;;;;;;;-6.36;100.00;97022.50;5049072;28;20059;-63
2023/12/04 06:09:23;;;;;;;22.73;14.23;;;;;;;-6.27;100.00;97034.75;5043625;28;20044;-63
2023/12/04 06:11:50;;;;;;;16.92;8.43;;;;;;;-6.36;100.00;97033.88;5044502;28;20528;-62
2023/12/04 06:14:16;;;;;;;17.15;11.25;;;;;;;-6.53;100.00;97033.75;5034969;28;20033;-62
2023/12/04 06:16:43;;;;;;;20.38;9.85;;;;;;;-6.40;100.00;97036.00;5035356;28;20129;-63
2023/12/04 06:19:09;;;;;;;17.10;8.18;;;;;;;-6.58;100.00;97027.28;5036163;28;20048;-63
2023/12/04 06:21:36;;;;;;;17.35;8.38;;;;;;;-6.33;100.00;97027.47;5032589;28;20065;-63
2023/12/04 06:24:03;;;;;;;18.27;9.57;;;;;;;-6.31;100.00;97026.34;5042824;28;20029;-63
2023/12/04 06:26:36;;;;;;;14.10;8.50;;;;;;;-6.63;100.00;97017.22;5037853;28;20079;-63
2023/12/04 06:29:02;;;;;;;117.13;67.00;;;;;;;-6.85;100.00;97021.97;5044280;28;20049;-63
2023/12/04 06:31:29;;;;;;;34.28;17.42;;;;;;;-6.84;100.00;97006.97;5044229;28;20051;-63
2023/12/04 06:33:56;;;;;;;41.70;25.52;;;;;;;-6.65;100.00;97006.00;5035158;28;20044;-63
2023/12/04 06:36:25;;;;;;;27.45;14.45;;;;;;;-6.66;100.00;97001.72;5035229;28;20048;-63
2023/12/04 06:38:52;;;;;;;18.00;9.27;;;;;;;-6.76;100.00;97014.13;5040722;28;20052;-63
2023/12/04 06:41:21;;;;;;;16.48;9.43;;;;;;;-6.69;100.00;97012.53;5032354;28;20099;-63
2023/12/04 06:43:48;;;;;;;18.00;9.25;;;;;;;-6.31;100.00;97005.25;5034696;28;20040;-63
2023/12/04 06:46:20;;;;;;;15.63;7.85;;;;;;;-6.26;100.00;96994.28;5038425;28;20030;-63
2023/12/04 06:48:48;;;;;;;18.38;9.80;;;;;;;-6.31;100.00;96991.25;5036535;28;20072;-63
2023/12/04 06:51:15;;;;;;;15.68;7.90;;;;;;;-6.33;100.00;96988.78;5040057;28;20048;-62
2023/12/04 06:53:41;;;;;;;13.50;7.47;;;;;;;-6.27;100.00;96980.25;5046981;28;20060;-62
2023/12/04 06:56:08;;;;;;;14.35;7.35;;;;;;;-6.20;100.00;96987.56;5035274;28;20038;-62
2023/12/04 06:58:35;;;;;;;15.32;7.88;;;;;;;-6.20;100.00;96975.19;5035781;28;20037;-63
2023/12/04 07:01:01;;;;;;;17.42;9.65;;;;;;;-6.19;100.00;96973.41;5036410;28;20052;-63
2023/12/04 07:03:28;;;;;;;20.38;10.27;;;;;;;-6.01;100.00;96970.69;5030342;28;20038;-62
2023/12/04 07:05:55;;;;;;;18.25;10.02;;;;;;;-6.03;100.00;96970.81;5037217;28;20037;-63
2023/12/04 07:08:22;;;;;;;16.27;7.57;;;;;;;-5.95;100.00;96966.56;5033138;28;20045;-62
2023/12/04 07:10:48;;;;;;;12.20;6.43;;;;;;;-5.86;100.00;96963.00;5032319;28;20479;-62
2023/12/04 07:13:16;;;;;;;19.75;9.20;;;;;;;-5.87;100.00;96969.25;5047109;28;20045;-62
2023/12/04 07:15:42;;;;;;;11.63;7.15;;;;;;;-5.87;100.00;96970.06;5034253;28;20063;-63
2023/12/04 07:18:09;;;;;;;14.82;7.20;;;;;;;-5.93;100.00;96959.34;5036334;28;20581;-62
2023/12/04 07:20:35;;;;;;;14.38;7.45;;;;;;;-5.78;100.00;96959.56;5037647;28;20094;-63
2023/12/04 07:23:02;;;;;;;14.15;6.75;;;;;;;-5.72;100.00;96960.75;5032823;28;20078;-62
2023/12/04 07:25:28;;;;;;;16.40;6.22;;;;;;;-5.72;100.00;96951.00;5031947;28;20052;-62
2023/12/04 07:27:57;;;;;;;13.68;7.25;;;;;;;-5.66;100.00;96947.75;5036458;28;20117;-63
2023/12/04 07:30:24;;;;;;;12.15;6.70;;;;;;;-5.59;100.00;96947.09;5042771;28;20052;-62
2023/12/04 07:32:53;;;;;;;19.10;10.07;;;;;;;-5.64;100.00;96948.41;5035638;28;20056;-63
2023/12/04 07:35:19;;;;;;;14.68;7.68;;;;;;;-5.66;100.00;96953.03;5033691;28;20118;-62
2023/12/04 07:37:46;;;;;;;15.98;8.75;;;;;;;-5.54;100.00;96950.09;4989913;28;1075257;-63
2023/12/04 07:40:13;;;;;;;18.92;10.85;;;;;;;-5.41;100.00;96945.19;5033816;28;20041;-63
2023/12/04 07:42:39;;;;;;;43.33;26.15;;;;;;;-5.54;100.00;96936.88;5033443;28;20041;-63
2023/12/04 07:45:07;;;;;;;15.75;7.45;;;;;;;-5.62;100.00;96938.53;5037177;28;20045;-63
2023/12/04 07:47:33;;;;;;;16.48;9.65;;;;;;;-5.75;100.00;96946.06;5038043;28;20045;-63
2023/12/04 07:50:00;;;;;;;19.73;11.30;;;;;;;-5.49;100.00;96937.25;5037083;28;20158;-63
2023/12/04 07:52:26;;;;;;;19.98;8.93;;;;;;;-5.42;100.00;96940.88;5030690;28;20049;-63
2023/12/04 07:54:53;;;;;;;39.60;19.55;;;;;;;-5.26;100.00;96937.47;5027608;28;20045;-63
2023/12/04 07:57:20;;;;;;;24.73;12.40;;;;;;;-5.18;100.00;96933.19;5028260;28;20632;-63
2023/12/04 07:59:46;;;;;;;21.60;10.88;;;;;;;-4.97;100.00;96938.00;5036821;28;20041;-63
2023/12/04 08:02:17;;;;;;;14.10;7.13;;;;;;;-4.85;100.00;96933.22;5044210;28;20056;-63
2023/12/04 08:04:44;;;;;;;10.95;6.05;;;;;;;-4.77;100.00;96945.59;5032589;28;20034;-63
2023/12/04 08:07:11;;;;;;;15.60;8.20;;;;;;;-4.66;100.00;96941.78;5034264;28;20041;-63
2023/12/04 08:09:37;;;;;;;13.00;6.55;;;;;;;-4.60;100.00;96949.88;5040003;28;20033;-63
2023/12/04 08:12:05;;;;;;;10.73;6.45;;;;;;;-4.55;100.00;96945.91;5034841;28;20509;-63
2023/12/04 08:14:32;;;;;;;13.15;6.65;;;;;;;-4.44;100.00;96933.22;5036926;28;20567;-63
2023/12/04 08:16:59;;;;;;;13.50;7.30;;;;;;;-4.37;100.00;96921.94;5038319;28;20042;-63
2023/12/04 08:19:25;;;;;;;13.02;6.88;;;;;;;-4.40;100.00;96912.53;5037591;28;20688;-63
2023/12/04 08:21:52;;;;;;;14.32;7.43;;;;;;;-4.32;100.00;96909.03;5037773;28;20083;-63
2023/12/04 08:24:18;;;;;;;16.55;7.78;;;;;;;-4.35;100.00;96888.25;5034862;28;20049;-63
2023/12/04 08:26:45;;;;;;;12.90;7.07;;;;;;;-4.29;100.00;96890.22;5030296;28;20060;-62
2023/12/04 08:29:12;;;;;;;12.40;7.53;;;;;;;-4.14;100.00;96892.97;5038593;28;20542;-63
2023/12/04 08:31:38;;;;;;;13.95;7.47;;;;;;;-4.03;100.00;96890.97;5037852;28;20128;-63
2023/12/04 08:34:05;;;;;;;16.20;8.15;;;;;;;-3.96;100.00;96887.47;5041850;28;20071;-63
2023/12/04 08:36:32;;;;;;;14.10;7.75;;;;;;;-3.90;100.00;96887.78;5036733;28;20132;-63
2023/12/04 08:39:12;;;;;;;12.55;7.20;;;;;;;-3.80;100.00;96888.38;5044445;28;20051;-63
2023/12/04 08:41:39;;;;;;;14.50;7.82;;;;;;;-3.69;100.00;96874.78;5035705;28;20044;-63
2023/12/04 08:44:15;;;;;;;19.20;11.27;;;;;;;-3.56;100.00;96876.03;5029642;28;20044;-63
2023/12/04 08:46:44;;;;;;;15.60;8.27;;;;;;;-3.43;100.00;96867.53;5031590;28;20055;-63
2023/12/04 08:49:10;;;;;;;9.88;6.30;;;;;;;-3.55;100.00;96883.81;5036613;28;20041;-63
2023/12/04 08:51:37;;;;;;;10.68;5.97;;;;;;;-3.46;100.00;96897.00;5055060;28;20048;-63
2023/12/04 08:54:04;;;;;;;11.30;5.78;;;;;;;-3.51;100.00;96891.41;5042224;28;20051;-63
2023/12/04 08:56:44;;;;;;;13.00;6.90;;;;;;;-3.54;100.00;96896.03;5025722;28;20180;-62
2023/12/04 08:59:12;;;;;;;12.30;7.05;;;;;;;-3.46;100.00;96899.63;5024273;28;20524;-62
2023/12/04 09:01:39;;;;;;;12.00;6.30;;;;;;;-3.56;100.00;96884.81;5036697;28;20045;-63
2023/12/04 09:04:09;;;;;;;11.85;6.50;;;;;;;-3.44;100.00;96887.03;5039250;28;20460;-64
2023/12/04 09:06:36;;;;;;;11.52;6.07;;;;;;;-3.47;100.00;96890.06;5038255;28;20049;-64
2023/12/04 09:09:06;;;;;;;12.00;7.00;;;;;;;-3.48;100.00;96891.88;5037006;28;20041;-64
2023/12/04 09:11:42;;;;;;;10.82;6.75;;;;;;;-3.47;100.00;96887.41;5035879;28;20128;-64
2023/12/04 09:14:09;;;;;;;14.45;6.93;;;;;;;-3.56;100.00;96894.56;5036539;28;20043;-63
2023/12/04 09:16:35;;;;;;;10.77;6.07;;;;;;;-3.43;100.00;96892.16;5037037;28;20574;-61
2023/12/04 09:19:02;;;;;;;10.07;5.70;;;;;;;-3.31;100.00;96891.78;5033792;28;20052;-64
2023/12/04 09:21:29;;;;;;;12.75;6.78;;;;;;;-3.26;100.00;96889.41;5049223;28;20051;-65
2023/12/04 09:23:55;;;;;;;13.77;6.13;;;;;;;-3.19;100.00;96892.19;5048266;28;20464;-63
2023/12/04 09:26:23;;;;;;;11.57;6.88;;;;;;;-3.40;100.00;96888.34;5039301;28;20094;-62
2023/12/04 09:28:49;;;;;;;12.82;6.40;;;;;;;-3.25;100.00;96898.19;5041552;28;20048;-63
2023/12/04 09:31:16;;;;;;;13.63;7.13;;;;;;;-3.16;100.00;96894.50;5039866;28;20052;-62
2023/12/04 09:33:42;;;;;;;13.85;6.63;;;;;;;-3.09;100.00;96889.31;5040524;28;20424;-63
2023/12/04 09:36:09;;;;;;;8.90;5.80;;;;;;;-2.93;100.00;96894.50;5038365;28;20048;-62
2023/12/04 09:38:36;;;;;;;11.75;6.53;;;;;;;-2.75;100.00;96910.09;5031105;28;20052;-64
2023/12/04 09:41:04;;;;;;;11.38;6.13;;;;;;;-2.69;100.00;96889.97;5043544;28;20530;-65
2023/12/04 09:43:32;;;;;;;9.32;6.10;;;;;;;-3.03;100.00;96888.59;5040804;28;20052;-64
2023/12/04 09:45:59;;;;;;;9.95;5.68;;;;;;;-3.25;100.00;96885.75;5034792;28;20037;-63
2023/12/04 09:48:26;;;;;;;9.70;6.22;;;;;;;-3.19;100.00;96881.59;5041034;28;20092;-63
2023/12/04 09:50:53;;;;;;;11.88;7.05;;;;;;;-3.16;100.00;96887.34;5041952;28;20118;-62
2023/12/04 09:53:24;;;;;;;13.82;7.47;;;;;;;-3.18;100.00;96873.47;5041334;28;20122;-63
2023/12/04 09:55:52;;;;;;;12.93;7.30;;;;;;;-3.18;100.00;96854.09;5036401;28;20037;-65
2023/12/04 09:58:27;;;;;;;12.32;6.13;;;;;;;-3.04;100.00;96869.25;5038360;28;20045;-63
2023/12/04 10:00:54;;;;;;;12.23;7.20;;;;;;;-2.95;100.00;96866.53;5042100;28;20133;-63
2023/12/04 10:03:21;;;;;;;15.25;6.63;;;;;;;-2.94;100.00;96855.75;5039982;28;20040;-63
2023/12/04 10:05:48;;;;;;;11.10;6.15;;;;;;;-2.89;100.00;96860.50;5039003;28;20041;-64
2023/12/04 10:08:16;;;;;;;14.95;7.40;;;;;;;-2.71;100.00;96854.06;5033837;28;20524;-64
2023/12/04 10:10:43;;;;;;;12.68;6.65;;;;;;;-2.58;100.00;96864.84;5041375;28;20037;-64
2023/12/04 10:13:09;;;;;;;12.13;6.43;;;;;;;-2.68;100.00;96866.94;5036403;28;20040;-64
2023/12/04 10:15:50;;;;;;;11.57;7.10;;;;;;;-2.65;100.00;96871.91;5045664;28;20044;-64
2023/12/04 10:18:30;;;;;;;12.75;6.95;;;;;;;-2.56;100.00;96870.81;5032645;28;20484;-62
2023/12/04 10:20:58;;;;;;;12.15;6.57;;;;;;;-2.47;100.00;96865.44;5039644;28;20125;-62
2023/12/04 10:23:42;;;;;;;11.30;6.80;;;;;;;-2.50;100.00;96869.28;5042373;28;20040;-62
2023/12/04 10:26:08;;;;;;;11.60;5.63;;;;;;;-2.41;100.00;96865.53;5034280;28;20646;-63
2023/12/04 10:28:35;;;;;;;10.98;6.50;;;;;;;-2.44;100.00;96863.22;5035061;28;20045;-64
2023/12/04 10:31:02;;;;;;;13.20;7.20;;;;;;;-2.55;100.00;96851.25;5030627;28;20049;-63
2023/12/04 10:33:29;;;;;;;11.32;6.60;;;;;;;-2.43;100.00;96845.50;5039965;28;20057;-64
2023/12/04 10:35:56;;;;;;;14.70;8.98;;;;;;;-2.50;100.00;96837.47;5041720;28;20057;-66
2023/12/04 10:38:23;;;;;;;12.18;6.47;;;;;;;-2.43;100.00;96835.72;5032807;28;20052;-63
2023/12/04 10:40:51;;;;;;;11.02;6.55;;;;;;;-2.33;100.00;96827.47;5035779;28;20072;-63
2023/12/04 10:43:21;;;;;;;12.35;6.88;;;;;;;-2.30;100.00;96824.47;5045224;28;20052;-64
2023/12/04 10:45:49;;;;;;;10.60;6.60;;;;;;;-2.13;100.00;96809.19;5038854;28;20557;-64
2023/12/04 10:48:18;;;;;;;10.65;6.22;;;;;;;-1.98;100.00;96819.75;5036026;28;20552;-61
2023/12/04 10:50:47;;;;;;;17.27;7.63;;;;;;;-1.97;100.00;96802.84;5043777;28;20072;-62
2023/12/04 10:53:15;;;;;;;12.95;6.40;;;;;;;-1.85;100.00;96784.63;5037250;28;20045;-61
2023/12/04 10:55:42;;;;;;;11.25;6.60;;;;;;;-1.80;100.00;96781.41;5035023;28;20048;-61
2023/12/04 10:58:11;;;;;;;11.30;6.28;;;;;;;-1.74;100.00;96766.53;5031966;28;20044;-61
2023/12/04 11:00:46;;;;;;;10.23;5.38;;;;;;;-1.60;100.00;96771.00;5040587;28;20171;-61
2023/12/04 11:03:22;;;;;;;9.52;5.50;;;;;;;-1.50;100.00;96762.72;5037696;28;20075;-62
2023/12/04 11:05:55;;;;;;;10.77;5.60;;;;;;;-1.49;100.00;96764.34;5033077;28;20386;-61
2023/12/04 11:08:22;;;;;;;10.13;6.10;;;;;;;-1.45;100.00;96757.66;5028188;28;20045;-66
2023/12/04 11:10:57;;;;;;;12.45;7.05;;;;;;;-1.46;100.00;96760.50;5042285;28;20055;-62
2023/12/04 11:13:28;;;;;;;11.52;6.43;;;;;;;-1.35;100.00;96754.69;5035083;28;20742;-62
2023/12/04 11:16:00;;;;;;;10.52;5.75;;;;;;;-1.22;100.00;96758.47;5031980;28;20663;-62
2023/12/04 11:18:30;;;;;;;10.07;5.93;;;;;;;-1.09;100.00;96765.72;5037057;28;20037;-62